createdAt,value
2022-12-31T00:04:59.606Z,22.20
2022-12-31T00:10:04.523Z,21.25
2022-12-31T00:15:08.816Z,22.17
2022-12-31T00:20:12.880Z,19.95
2022-12-31T00:25:17.743Z,18.70
2022-12-31T00:30:21.095Z,18.92
2022-12-31T00:35:24.464Z,19.73
2022-12-31T00:40:30.353Z,18.45
2022-12-31T00:45:33.691Z,16.88
2022-12-31T00:50:36.865Z,16.35
2022-12-31T00:55:41.657Z,15.98
2022-12-31T01:00:45.008Z,16.77
2022-12-31T01:05:48.324Z,15.63
2022-12-31T01:11:10.725Z,16.85
2022-12-31T01:16:15.842Z,15.05
2022-12-31T01:21:20.198Z,14.48
2022-12-31T01:26:24.996Z,14.98
2022-12-31T01:31:29.407Z,18.88
2022-12-31T01:36:34.451Z,16.10
2022-12-31T01:41:41.586Z,14.02
2022-12-31T01:46:48.606Z,12.13
2022-12-31T01:51:54.975Z,12.40
2022-12-31T01:57:00.250Z,12.65
2022-12-31T02:02:03.820Z,12.02
2022-12-31T02:07:09.119Z,12.48
2022-12-31T02:12:14.246Z,14.13
2022-12-31T02:17:29.886Z,10.48
2022-12-31T02:22:48.807Z,12.27
2022-12-31T02:28:02.516Z,10.85
2022-12-31T02:33:16.368Z,9.27
2022-12-31T02:38:23.133Z,8.48
2022-12-31T02:43:27.294Z,9.25
2022-12-31T02:48:41.790Z,8.75
2022-12-31T02:54:05.738Z,9.57
2022-12-31T02:59:33.172Z,7.40
2022-12-31T03:04:37.989Z,8.15
2022-12-31T03:09:41.518Z,8.07
2022-12-31T03:14:44.942Z,7.13
2022-12-31T03:20:06.947Z,6.68
2022-12-31T03:25:29.988Z,6.30
2022-12-31T03:30:34.301Z,6.10
2022-12-31T03:35:40.109Z,6.72
2022-12-31T03:40:46.769Z,10.43
2022-12-31T03:45:51.897Z,7.05
2022-12-31T03:50:57.137Z,6.47
2022-12-31T03:56:00.468Z,7.72
2022-12-31T04:01:03.908Z,7.80
2022-12-31T04:06:09.102Z,7.40
2022-12-31T04:11:17.395Z,5.25
2022-12-31T04:16:23.971Z,5.95
2022-12-31T04:21:34.671Z,5.75
2022-12-31T04:26:38.974Z,5.80
2022-12-31T04:31:42.268Z,5.57
2022-12-31T04:36:47.248Z,5.15
2022-12-31T04:41:50.546Z,4.93
2022-12-31T04:46:53.789Z,5.68
2022-12-31T04:51:58.515Z,5.68
2022-12-31T04:57:01.887Z,5.63
2022-12-31T05:02:05.527Z,5.53
2022-12-31T05:07:10.533Z,5.15
2022-12-31T05:12:13.829Z,4.72
2022-12-31T05:17:17.035Z,4.75
2022-12-31T05:22:31.060Z,5.57
2022-12-31T05:27:35.019Z,5.65
2022-12-31T05:32:38.319Z,5.13
2022-12-31T05:37:43.103Z,4.93
2022-12-31T05:42:46.351Z,5.18
2022-12-31T05:47:49.799Z,7.35
2022-12-31T05:52:54.565Z,7.13
2022-12-31T05:57:57.918Z,6.75
2022-12-31T06:03:01.344Z,6.70
2022-12-31T06:08:06.545Z,6.40
2022-12-31T06:13:10.241Z,5.88
2022-12-31T06:18:13.674Z,5.72
2022-12-31T06:23:18.345Z,5.78
2022-12-31T06:28:22.603Z,6.60
2022-12-31T06:33:35.482Z,6.85
2022-12-31T06:38:41.830Z,7.22
2022-12-31T06:43:45.715Z,6.78
2022-12-31T06:48:49.714Z,6.68
2022-12-31T06:53:55.122Z,6.90
2022-12-31T06:58:59.228Z,8.20
2022-12-31T07:04:18.569Z,7.97
2022-12-31T07:09:31.738Z,7.90
2022-12-31T07:14:42.017Z,8.23
2022-12-31T07:19:57.642Z,8.27
2022-12-31T07:25:03.627Z,8.07
2022-12-31T07:30:12.663Z,8.95
2022-12-31T07:35:23.403Z,10.75
2022-12-31T07:40:36.662Z,10.60
2022-12-31T07:45:47.222Z,9.18
2022-12-31T07:50:51.358Z,9.18
2022-12-31T07:55:58.592Z,8.73
2022-12-31T08:01:02.686Z,8.00
2022-12-31T08:06:13.469Z,8.75
2022-12-31T08:11:27.126Z,8.55
2022-12-31T08:16:31.141Z,10.00
2022-12-31T08:21:45.095Z,10.95
2022-12-31T08:27:03.401Z,9.80
2022-12-31T08:32:14.557Z,10.38
2022-12-31T08:37:25.196Z,10.13
2022-12-31T08:42:37.626Z,10.65
2022-12-31T08:47:48.648Z,10.38
2022-12-31T08:52:53.098Z,12.43
2022-12-31T08:58:11.151Z,11.75
2022-12-31T09:03:33.417Z,12.23
2022-12-31T09:08:48.223Z,10.35
2022-12-31T09:14:34.002Z,12.13
2022-12-31T09:19:37.453Z,12.93
2022-12-31T09:24:41.273Z,12.52
2022-12-31T09:29:57.338Z,11.70
2022-12-31T09:35:10.020Z,12.20
2022-12-31T09:40:46.625Z,11.98
2022-12-31T09:46:14.904Z,12.10
2022-12-31T09:51:29.993Z,12.93
2022-12-31T09:56:37.771Z,12.95
2022-12-31T10:01:51.609Z,14.60
2022-12-31T10:07:07.019Z,15.50
2022-12-31T10:12:31.512Z,13.77
2022-12-31T10:17:58.987Z,13.63
2022-12-31T10:23:37.937Z,13.88
2022-12-31T10:28:50.961Z,14.13
2022-12-31T10:34:13.792Z,15.02
2022-12-31T10:39:32.600Z,15.77
2022-12-31T10:45:14.267Z,13.80
2022-12-31T10:50:41.931Z,12.15
2022-12-31T10:56:22.265Z,12.18
2022-12-31T11:01:39.604Z,11.25
2022-12-31T11:07:15.368Z,10.13
2022-12-31T11:12:48.348Z,13.63
2022-12-31T11:18:01.945Z,9.20
2022-12-31T11:23:14.589Z,10.63
2022-12-31T11:28:42.857Z,10.45
2022-12-31T11:34:00.594Z,8.55
2022-12-31T11:39:30.825Z,9.60
2022-12-31T11:44:47.640Z,10.27
2022-12-31T11:50:04.884Z,9.20
2022-12-31T11:55:27.654Z,8.48
2022-12-31T12:00:34.407Z,9.17
2022-12-31T12:05:40.008Z,8.55
2022-12-31T12:10:46.780Z,8.52
2022-12-31T12:15:53.636Z,7.85
2022-12-31T12:21:06.617Z,7.57
2022-12-31T12:26:28.771Z,7.53
2022-12-31T12:31:34.395Z,6.50
2022-12-31T12:36:47.972Z,9.30
2022-12-31T12:42:03.755Z,8.88
2022-12-31T12:47:15.640Z,7.35
2022-12-31T12:52:43.124Z,7.40
2022-12-31T12:57:56.083Z,6.45
2022-12-31T13:04:07.370Z,6.78
2022-12-31T13:09:25.269Z,7.25
2022-12-31T13:14:37.555Z,6.00
2022-12-31T13:19:46.608Z,6.40
2022-12-31T13:25:01.677Z,5.65
2022-12-31T13:30:14.751Z,5.90
2022-12-31T13:35:26.483Z,5.25
2022-12-31T13:40:36.023Z,5.53
2022-12-31T13:45:44.829Z,5.95
2022-12-31T13:50:54.059Z,5.82
2022-12-31T13:56:04.198Z,8.02
2022-12-31T14:01:17.661Z,6.25
2022-12-31T14:06:30.028Z,6.10
2022-12-31T14:11:54.473Z,6.30
2022-12-31T14:22:31.568Z,16.23
